sensor_id;sensor_type;location;lat;lon;timestamp;pressure;altitude;pressure_sealevel;temperature
18713;BMP280;9485;49.386;8.674;2024-03-23T00:54:53;99602.84;;;15.01
18713;BMP280;9485;49.386;8.674;2024-03-23T01:00:15;99598.94;;;15.04
18713;BMP280;9485;49.386;8.674;2024-03-23T01:05:36;99582.09;;;14.94
18713;BMP280;9485;49.386;8.674;2024-03-23T01:10:58;99592.03;;;15.00
18713;BMP280;9485;49.386;8.674;2024-03-23T01:16:19;99576.84;;;14.98
18713;BMP280;9485;49.386;8.674;2024-03-23T01:21:39;99570.41;;;14.97
18713;BMP280;9485;49.386;8.674;2024-03-23T01:26:59;99570.50;;;15.04
18713;BMP280;9485;49.386;8.674;2024-03-23T01:32:19;99557.28;;;15.07
18713;BMP280;9485;49.386;8.674;2024-03-23T01:37:40;99546.13;;;15.09
18713;BMP280;9485;49.386;8.674;2024-03-23T01:43:05;99547.97;;;15.19
18713;BMP280;9485;49.386;8.674;2024-03-23T01:48:27;99532.88;;;15.24
18713;BMP280;9485;49.386;8.674;2024-03-23T01:53:47;99528.19;;;15.27
18713;BMP280;9485;49.386;8.674;2024-03-23T01:59:08;99523.06;;;15.25
18713;BMP280;9485;49.386;8.674;2024-03-23T02:04:28;99519.75;;;15.21
18713;BMP280;9485;49.386;8.674;2024-03-23T02:09:48;99512.97;;;15.24
18713;BMP280;9485;49.386;8.674;2024-03-23T02:15:09;99512.53;;;15.20
18713;BMP280;9485;49.386;8.674;2024-03-23T02:20:29;99502.91;;;15.23
18713;BMP280;9485;49.386;8.674;2024-03-23T02:25:50;99494.91;;;15.22
18713;BMP280;9485;49.386;8.674;2024-03-23T02:31:13;99499.41;;;15.17
18713;BMP280;9485;49.386;8.674;2024-03-23T02:36:34;99489.81;;;15.07
18713;BMP280;9485;49.386;8.674;2024-03-23T02:41:54;99496.59;;;15.04
18713;BMP280;9485;49.386;8.674;2024-03-23T02:47:14;99496.38;;;15.02
18713;BMP280;9485;49.386;8.674;2024-03-23T02:52:35;99497.25;;;14.98
18713;BMP280;9485;49.386;8.674;2024-03-23T02:57:56;99498.91;;;14.93
18713;BMP280;9485;49.386;8.674;2024-03-23T03:03:21;99500.97;;;14.93
18713;BMP280;9485;49.386;8.674;2024-03-23T03:08:41;99505.69;;;14.90
18713;BMP280;9485;49.386;8.674;2024-03-23T03:14:01;99508.88;;;14.87
18713;BMP280;9485;49.386;8.674;2024-03-23T03:19:23;99507.66;;;14.82
18713;BMP280;9485;49.386;8.674;2024-03-23T03:24:43;99502.31;;;14.79
18713;BMP280;9485;49.386;8.674;2024-03-23T03:30:04;99488.19;;;14.73
18713;BMP280;9485;49.386;8.674;2024-03-23T03:35:26;99494.44;;;14.59
18713;BMP280;9485;49.386;8.674;2024-03-23T03:40:47;99495.75;;;14.58
18713;BMP280;9485;49.386;8.674;2024-03-23T03:46:08;99476.19;;;14.54
18713;BMP280;9485;49.386;8.674;2024-03-23T03:51:29;99459.91;;;14.42
18713;BMP280;9485;49.386;8.674;2024-03-23T03:56:49;99476.03;;;14.34
18713;BMP280;9485;49.386;8.674;2024-03-23T04:02:09;99477.16;;;14.31
18713;BMP280;9485;49.386;8.674;2024-03-23T04:07:30;99461.75;;;14.27
18713;BMP280;9485;49.386;8.674;2024-03-23T04:12:51;99460.97;;;14.26
18713;BMP280;9485;49.386;8.674;2024-03-23T04:18:11;99447.41;;;14.19
18713;BMP280;9485;49.386;8.674;2024-03-23T04:23:32;99443.19;;;14.26
18713;BMP280;9485;49.386;8.674;2024-03-23T04:28:52;99464.03;;;14.28
18713;BMP280;9485;49.386;8.674;2024-03-23T04:34:13;99449.84;;;14.28
18713;BMP280;9485;49.386;8.674;2024-03-23T04:39:33;99459.88;;;14.29
18713;BMP280;9485;49.386;8.674;2024-03-23T04:44:54;99463.47;;;14.29
18713;BMP280;9485;49.386;8.674;2024-03-23T04:50:14;99456.06;;;14.27
18713;BMP280;9485;49.386;8.674;2024-03-23T04:55:34;99465.88;;;14.26
18713;BMP280;9485;49.386;8.674;2024-03-23T05:00:56;99453.75;;;14.25
18713;BMP280;9485;49.386;8.674;2024-03-23T05:06:16;99471.34;;;14.24
18713;BMP280;9485;49.386;8.674;2024-03-23T05:11:38;99468.25;;;14.22
18713;BMP280;9485;49.386;8.674;2024-03-23T05:16:58;99503.53;;;14.13
18713;BMP280;9485;49.386;8.674;2024-03-23T05:22:19;99494.31;;;14.07
18713;BMP280;9485;49.386;8.674;2024-03-23T05:27:39;99474.97;;;13.93
18713;BMP280;9485;49.386;8.674;2024-03-23T05:33:00;99501.63;;;13.71
18713;BMP280;9485;49.386;8.674;2024-03-23T05:38:20;99507.94;;;13.46
18713;BMP280;9485;49.386;8.674;2024-03-23T05:43:41;99523.44;;;13.27
18713;BMP280;9485;49.386;8.674;2024-03-23T05:49:02;99563.00;;;13.14
18713;BMP280;9485;49.386;8.674;2024-03-23T05:54:22;99594.09;;;13.01
18713;BMP280;9485;49.386;8.674;2024-03-23T05:59:44;99621.16;;;12.73
18713;BMP280;9485;49.386;8.674;2024-03-23T06:05:04;99654.09;;;12.46
18713;BMP280;9485;49.386;8.674;2024-03-23T06:10:25;99674.59;;;12.23
18713;BMP280;9485;49.386;8.674;2024-03-23T06:15:45;99681.66;;;12.05
18713;BMP280;9485;49.386;8.674;2024-03-23T06:21:13;99700.22;;;11.96
18713;BMP280;9485;49.386;8.674;2024-03-23T06:26:33;99722.41;;;11.86
18713;BMP280;9485;49.386;8.674;2024-03-23T06:31:54;99712.97;;;11.73
18713;BMP280;9485;49.386;8.674;2024-03-23T06:37:15;99717.63;;;11.65
18713;BMP280;9485;49.386;8.674;2024-03-23T06:42:36;99725.31;;;11.64
18713;BMP280;9485;49.386;8.674;2024-03-23T06:47:56;99751.56;;;11.65
18713;BMP280;9485;49.386;8.674;2024-03-23T06:53:17;99752.84;;;11.64
18713;BMP280;9485;49.386;8.674;2024-03-23T06:58:38;99773.44;;;11.59
18713;BMP280;9485;49.386;8.674;2024-03-23T07:03:58;99785.00;;;11.55
18713;BMP280;9485;49.386;8.674;2024-03-23T07:09:18;99790.16;;;11.46
18713;BMP280;9485;49.386;8.674;2024-03-23T07:14:39;99800.44;;;11.54
18713;BMP280;9485;49.386;8.674;2024-03-23T07:19:59;99834.31;;;11.65
18713;BMP280;9485;49.386;8.674;2024-03-23T07:25:20;99834.31;;;11.65
18713;BMP280;9485;49.386;8.674;2024-03-23T07:30:42;99843.59;;;11.49
18713;BMP280;9485;49.386;8.674;2024-03-23T07:36:03;99859.00;;;11.48
18713;BMP280;9485;49.386;8.674;2024-03-23T07:41:23;99860.81;;;11.57
18713;BMP280;9485;49.386;8.674;2024-03-23T07:46:44;99887.06;;;11.52
18713;BMP280;9485;49.386;8.674;2024-03-23T07:52:05;99905.00;;;11.49
18713;BMP280;9485;49.386;8.674;2024-03-23T07:57:25;99922.22;;;11.45
18713;BMP280;9485;49.386;8.674;2024-03-23T08:02:45;99923.00;;;11.46
18713;BMP280;9485;49.386;8.674;2024-03-23T08:08:06;99931.00;;;11.53
18713;BMP280;9485;49.386;8.674;2024-03-23T08:13:27;99955.16;;;11.70
18713;BMP280;9485;49.386;8.674;2024-03-23T08:18:47;99962.84;;;11.64
18713;BMP280;9485;49.386;8.674;2024-03-23T08:24:07;99967.25;;;11.76
18713;BMP280;9485;49.386;8.674;2024-03-23T08:29:28;99974.44;;;11.83
18713;BMP280;9485;49.386;8.674;2024-03-23T08:34:48;99987.28;;;11.95
18713;BMP280;9485;49.386;8.674;2024-03-23T08:40:09;99992.94;;;12.05
18713;BMP280;9485;49.386;8.674;2024-03-23T08:45:29;100003.41;;;13.11
18713;BMP280;9485;49.386;8.674;2024-03-23T08:51:18;100003.94;;;13.09
18713;BMP280;9485;49.386;8.674;2024-03-23T08:56:39;100008.91;;;12.87
18713;BMP280;9485;49.386;8.674;2024-03-23T09:01:59;100027.47;;;12.88
18713;BMP280;9485;49.386;8.674;2024-03-23T09:07:20;100024.09;;;13.00
18713;BMP280;9485;49.386;8.674;2024-03-23T09:12:41;100034.84;;;13.13
18713;BMP280;9485;49.386;8.674;2024-03-23T09:18:02;100044.22;;;13.43
18713;BMP280;9485;49.386;8.674;2024-03-23T09:23:23;100039.75;;;13.58
18713;BMP280;9485;49.386;8.674;2024-03-23T09:28:44;100032.84;;;13.83
18713;BMP280;9485;49.386;8.674;2024-03-23T09:34:04;100029.13;;;14.28
18713;BMP280;9485;49.386;8.674;2024-03-23T09:39:25;100016.81;;;15.10
18713;BMP280;9485;49.386;8.674;2024-03-23T09:44:45;100024.72;;;14.75
18713;BMP280;9485;49.386;8.674;2024-03-23T09:50:07;100029.75;;;14.16
18713;BMP280;9485;49.386;8.674;2024-03-23T09:55:28;100035.56;;;13.64
18713;BMP280;9485;49.386;8.674;2024-03-23T10:00:48;100030.03;;;13.43
18713;BMP280;9485;49.386;8.674;2024-03-23T10:06:08;100025.28;;;13.16
18713;BMP280;9485;49.386;8.674;2024-03-23T10:11:28;100034.88;;;13.07
18713;BMP280;9485;49.386;8.674;2024-03-23T10:16:49;100029.75;;;13.00
18713;BMP280;9485;49.386;8.674;2024-03-23T10:22:14;100033.63;;;12.97
18713;BMP280;9485;49.386;8.674;2024-03-23T10:27:35;100027.63;;;13.12
18713;BMP280;9485;49.386;8.674;2024-03-23T10:33:12;100024.72;;;13.23
18713;BMP280;9485;49.386;8.674;2024-03-23T10:38:33;100022.44;;;13.21
18713;BMP280;9485;49.386;8.674;2024-03-23T10:43:58;100016.69;;;13.32
18713;BMP280;9485;49.386;8.674;2024-03-23T10:49:18;100006.88;;;13.39
18713;BMP280;9485;49.386;8.674;2024-03-23T10:54:43;99996.72;;;13.83
18713;BMP280;9485;49.386;8.674;2024-03-23T11:00:05;99988.72;;;15.75
18713;BMP280;9485;49.386;8.674;2024-03-23T11:10:46;99995.28;;;17.76
18713;BMP280;9485;49.386;8.674;2024-03-23T11:16:17;100000.56;;;17.72
18713;BMP280;9485;49.386;8.674;2024-03-23T11:21:54;100001.25;;;17.32
18713;BMP280;9485;49.386;8.674;2024-03-23T11:27:18;99991.84;;;18.18
18713;BMP280;9485;49.386;8.674;2024-03-23T11:32:39;99992.22;;;18.15
18713;BMP280;9485;49.386;8.674;2024-03-23T11:38:14;99983.13;;;18.72
18713;BMP280;9485;49.386;8.674;2024-03-23T11:43:36;99982.31;;;18.16
18713;BMP280;9485;49.386;8.674;2024-03-23T11:48:57;99970.47;;;17.71
18713;BMP280;9485;49.386;8.674;2024-03-23T11:54:24;99962.81;;;17.33
18713;BMP280;9485;49.386;8.674;2024-03-23T11:59:45;99962.28;;;17.34
18713;BMP280;9485;49.386;8.674;2024-03-23T12:05:16;100000.44;;;16.72
18713;BMP280;9485;49.386;8.674;2024-03-23T12:10:36;100040.31;;;15.53
18713;BMP280;9485;49.386;8.674;2024-03-23T12:16:14;100041.31;;;14.23
18713;BMP280;9485;49.386;8.674;2024-03-23T12:21:35;100053.38;;;13.19
18713;BMP280;9485;49.386;8.674;2024-03-23T12:27:03;100068.19;;;12.69
18713;BMP280;9485;49.386;8.674;2024-03-23T12:32:24;100049.25;;;12.25
18713;BMP280;9485;49.386;8.674;2024-03-23T12:37:45;100037.69;;;11.80
18713;BMP280;9485;49.386;8.674;2024-03-23T12:43:05;100062.03;;;11.44
18713;BMP280;9485;49.386;8.674;2024-03-23T12:48:27;100026.50;;;11.16
18713;BMP280;9485;49.386;8.674;2024-03-23T12:53:47;100023.47;;;11.25
18713;BMP280;9485;49.386;8.674;2024-03-23T12:59:07;100020.63;;;11.20
18713;BMP280;9485;49.386;8.674;2024-03-23T13:04:28;100010.09;;;11.25
18713;BMP280;9485;49.386;8.674;2024-03-23T13:09:53;100023.00;;;11.54
18713;BMP280;9485;49.386;8.674;2024-03-23T13:15:16;100095.38;;;11.19
18713;BMP280;9485;49.386;8.674;2024-03-23T13:20:37;100113.69;;;10.40
18713;BMP280;9485;49.386;8.674;2024-03-23T13:25:58;100068.16;;;9.96
18713;BMP280;9485;49.386;8.674;2024-03-23T13:31:18;100059.34;;;11.03
18713;BMP280;9485;49.386;8.674;2024-03-23T13:36:38;100050.16;;;11.19
18713;BMP280;9485;49.386;8.674;2024-03-23T13:41:59;100047.53;;;10.99
18713;BMP280;9485;49.386;8.674;2024-03-23T13:47:19;100050.88;;;10.97
18713;BMP280;9485;49.386;8.674;2024-03-23T13:52:40;100049.06;;;11.05
18713;BMP280;9485;49.386;8.674;2024-03-23T13:58:00;100041.31;;;11.86
18713;BMP280;9485;49.386;8.674;2024-03-23T14:03:20;100028.13;;;13.16
18713;BMP280;9485;49.386;8.674;2024-03-23T14:08:41;100019.97;;;13.76
18713;BMP280;9485;49.386;8.674;2024-03-23T14:14:02;100017.34;;;13.54
18713;BMP280;9485;49.386;8.674;2024-03-23T14:19:22;100011.75;;;13.38
18713;BMP280;9485;49.386;8.674;2024-03-23T14:24:43;100004.97;;;14.40
18713;BMP280;9485;49.386;8.674;2024-03-23T14:30:05;100002.09;;;14.45
18713;BMP280;9485;49.386;8.674;2024-03-23T14:35:25;99997.75;;;14.15
18713;BMP280;9485;49.386;8.674;2024-03-23T14:40:46;99982.03;;;14.14
18713;BMP280;9485;49.386;8.674;2024-03-23T14:46:12;99964.06;;;14.72
18713;BMP280;9485;49.386;8.674;2024-03-23T14:51:33;99973.75;;;15.19
18713;BMP280;9485;49.386;8.674;2024-03-23T14:56:54;99963.59;;;15.05
18713;BMP280;9485;49.386;8.674;2024-03-23T15:02:15;99955.00;;;14.92
18713;BMP280;9485;49.386;8.674;2024-03-23T15:07:36;99959.06;;;14.36
18713;BMP280;9485;49.386;8.674;2024-03-23T15:12:57;99961.84;;;14.18
18713;BMP280;9485;49.386;8.674;2024-03-23T15:18:18;99961.28;;;13.95
18713;BMP280;9485;49.386;8.674;2024-03-23T15:23:44;99945.19;;;14.03
18713;BMP280;9485;49.386;8.674;2024-03-23T15:29:05;99946.78;;;13.69
18713;BMP280;9485;49.386;8.674;2024-03-23T15:34:31;99933.09;;;13.44
18713;BMP280;9485;49.386;8.674;2024-03-23T15:39:51;99931.88;;;13.34
18713;BMP280;9485;49.386;8.674;2024-03-23T15:45:12;99918.38;;;13.11
18713;BMP280;9485;49.386;8.674;2024-03-23T15:50:32;99911.31;;;12.88
18713;BMP280;9485;49.386;8.674;2024-03-23T15:56:00;99969.31;;;12.71
18713;BMP280;9485;49.386;8.674;2024-03-23T16:01:22;100014.53;;;11.54
18713;BMP280;9485;49.386;8.674;2024-03-23T16:06:43;100042.16;;;10.12
18713;BMP280;9485;49.386;8.674;2024-03-23T16:12:04;100021.88;;;9.26
18713;BMP280;9485;49.386;8.674;2024-03-23T16:17:24;99988.22;;;8.92
18713;BMP280;9485;49.386;8.674;2024-03-23T16:22:44;99942.56;;;9.33
18713;BMP280;9485;49.386;8.674;2024-03-23T16:28:05;99939.13;;;9.55
18713;BMP280;9485;49.386;8.674;2024-03-23T16:33:26;99955.31;;;9.29
18713;BMP280;9485;49.386;8.674;2024-03-23T16:38:47;99966.00;;;9.19
18713;BMP280;9485;49.386;8.674;2024-03-23T16:44:07;99988.81;;;9.21
18713;BMP280;9485;49.386;8.674;2024-03-23T16:49:29;100003.13;;;9.18
18713;BMP280;9485;49.386;8.674;2024-03-23T16:54:50;100022.00;;;9.12
18713;BMP280;9485;49.386;8.674;2024-03-23T17:00:11;100024.47;;;9.04
18713;BMP280;9485;49.386;8.674;2024-03-23T17:05:38;100013.41;;;9.01
18713;BMP280;9485;49.386;8.674;2024-03-23T17:11:00;99999.69;;;8.89
18713;BMP280;9485;49.386;8.674;2024-03-23T17:16:20;99990.63;;;8.79
18713;BMP280;9485;49.386;8.674;2024-03-23T17:21:41;99965.31;;;8.79
18713;BMP280;9485;49.386;8.674;2024-03-23T17:27:03;99958.91;;;8.79
18713;BMP280;9485;49.386;8.674;2024-03-23T17:32:23;99940.84;;;8.65
18713;BMP280;9485;49.386;8.674;2024-03-23T17:37:44;99941.78;;;8.57
18713;BMP280;9485;49.386;8.674;2024-03-23T17:43:05;99948.78;;;8.47
18713;BMP280;9485;49.386;8.674;2024-03-23T17:48:25;99951.59;;;8.47
18713;BMP280;9485;49.386;8.674;2024-03-23T17:53:46;99959.22;;;8.41
18713;BMP280;9485;49.386;8.674;2024-03-23T17:59:06;99953.59;;;8.41
18713;BMP280;9485;49.386;8.674;2024-03-23T18:04:27;99956.56;;;8.32
18713;BMP280;9485;49.386;8.674;2024-03-23T18:09:48;99968.78;;;8.29
18713;BMP280;9485;49.386;8.674;2024-03-23T18:15:08;99967.88;;;8.37
18713;BMP280;9485;49.386;8.674;2024-03-23T18:20:29;99959.84;;;8.30
18713;BMP280;9485;49.386;8.674;2024-03-23T18:25:53;99992.13;;;8.35
18713;BMP280;9485;49.386;8.674;2024-03-23T18:31:15;100005.44;;;8.34
18713;BMP280;9485;49.386;8.674;2024-03-23T18:36:36;100021.25;;;8.32
18713;BMP280;9485;49.386;8.674;2024-03-23T18:41:56;100011.19;;;8.25
18713;BMP280;9485;49.386;8.674;2024-03-23T18:47:16;100011.41;;;8.08
18713;BMP280;9485;49.386;8.674;2024-03-23T18:52:37;100000.06;;;8.02
18713;BMP280;9485;49.386;8.674;2024-03-23T18:57:57;99991.25;;;7.95
18713;BMP280;9485;49.386;8.674;2024-03-23T19:03:18;99988.00;;;7.82
18713;BMP280;9485;49.386;8.674;2024-03-23T19:08:38;99978.63;;;7.70
18713;BMP280;9485;49.386;8.674;2024-03-23T19:14:00;99987.03;;;7.70
18713;BMP280;9485;49.386;8.674;2024-03-23T19:19:20;99978.06;;;7.66
18713;BMP280;9485;49.386;8.674;2024-03-23T19:24:41;99976.22;;;7.63
18713;BMP280;9485;49.386;8.674;2024-03-23T19:30:01;99977.56;;;7.68
18713;BMP280;9485;49.386;8.674;2024-03-23T19:35:23;99979.81;;;7.64
18713;BMP280;9485;49.386;8.674;2024-03-23T19:40:55;99975.75;;;7.65
18713;BMP280;9485;49.386;8.674;2024-03-23T19:46:16;99976.22;;;7.63
18713;BMP280;9485;49.386;8.674;2024-03-23T19:51:37;99981.22;;;7.74
18713;BMP280;9485;49.386;8.674;2024-03-23T19:56:57;99965.75;;;7.64
18713;BMP280;9485;49.386;8.674;2024-03-23T20:02:18;99987.03;;;7.70
18713;BMP280;9485;49.386;8.674;2024-03-23T20:07:41;99982.78;;;7.75
18713;BMP280;9485;49.386;8.674;2024-03-23T20:13:02;99974.28;;;7.69
18713;BMP280;9485;49.386;8.674;2024-03-23T20:18:22;99977.75;;;7.64
18713;BMP280;9485;49.386;8.674;2024-03-23T20:23:44;99980.69;;;7.55
18713;BMP280;9485;49.386;8.674;2024-03-23T20:29:05;99997.34;;;7.59
18713;BMP280;9485;49.386;8.674;2024-03-23T20:34:26;99995.69;;;7.67
18713;BMP280;9485;49.386;8.674;2024-03-23T20:39:47;100001.78;;;7.65
18713;BMP280;9485;49.386;8.674;2024-03-23T20:45:07;99993.47;;;7.56
18713;BMP280;9485;49.386;8.674;2024-03-23T20:50:29;99997.91;;;7.63
18713;BMP280;9485;49.386;8.674;2024-03-23T20:55:52;100006.66;;;7.65
18713;BMP280;9485;49.386;8.674;2024-03-23T21:01:13;100003.03;;;7.64
18713;BMP280;9485;49.386;8.674;2024-03-23T21:06:34;99999.69;;;7.60
18713;BMP280;9485;49.386;8.674;2024-03-23T21:11:55;99991.53;;;7.62
18713;BMP280;9485;49.386;8.674;2024-03-23T21:17:15;99977.75;;;7.64
18713;BMP280;9485;49.386;8.674;2024-03-23T21:22:35;99971.47;;;7.69
18713;BMP280;9485;49.386;8.674;2024-03-23T21:27:56;99959.63;;;7.65
18713;BMP280;9485;49.386;8.674;2024-03-23T21:33:16;99951.72;;;7.64
18713;BMP280;9485;49.386;8.674;2024-03-23T21:38:37;99939.81;;;7.54
18713;BMP280;9485;49.386;8.674;2024-03-23T21:43:57;99929.75;;;7.48
18713;BMP280;9485;49.386;8.674;2024-03-23T21:49:18;99926.06;;;7.42
18713;BMP280;9485;49.386;8.674;2024-03-23T21:54:39;99923.56;;;7.44
18713;BMP280;9485;49.386;8.674;2024-03-23T22:00:00;99911.53;;;7.43
18713;BMP280;9485;49.386;8.674;2024-03-23T22:05:20;99907.09;;;7.37
18713;BMP280;9485;49.386;8.674;2024-03-23T22:10:40;99915.13;;;7.30
18713;BMP280;9485;49.386;8.674;2024-03-23T22:16:04;99897.63;;;7.35
18713;BMP280;9485;49.386;8.674;2024-03-23T22:21:26;99902.94;;;7.33
18713;BMP280;9485;49.386;8.674;2024-03-23T22:26:47;99894.41;;;7.27
18713;BMP280;9485;49.386;8.674;2024-03-23T22:32:07;99883.38;;;7.38
18713;BMP280;9485;49.386;8.674;2024-03-23T22:37:27;99887.81;;;7.44
18713;BMP280;9485;49.386;8.674;2024-03-23T22:42:47;99887.59;;;7.48
18713;BMP280;9485;49.386;8.674;2024-03-23T22:48:08;99876.06;;;7.46
18713;BMP280;9485;49.386;8.674;2024-03-23T22:53:29;99867.44;;;7.49
18713;BMP280;9485;49.386;8.674;2024-03-23T22:58:50;99872.59;;;7.51
18713;BMP280;9485;49.386;8.674;2024-03-23T23:04:10;99860.34;;;7.54
18713;BMP280;9485;49.386;8.674;2024-03-23T23:09:31;99862.50;;;7.59
18713;BMP280;9485;49.386;8.674;2024-03-23T23:14:51;99844.72;;;7.67
18713;BMP280;9485;49.386;8.674;2024-03-23T23:20:12;99842.97;;;7.70
18713;BMP280;9485;49.386;8.674;2024-03-23T23:25:33;99818.59;;;7.61
18713;BMP280;9485;49.386;8.674;2024-03-23T23:30:58;99816.03;;;7.43
18713;BMP280;9485;49.386;8.674;2024-03-23T23:36:20;99804.03;;;7.43
18713;BMP280;9485;49.386;8.674;2024-03-23T23:41:40;99807.06;;;7.40
18713;BMP280;9485;49.386;8.674;2024-03-23T23:47:00;99808.41;;;7.44
18713;BMP280;9485;49.386;8.674;2024-03-23T23:52:21;99798.75;;;7.50
18713;BMP280;9485;49.386;8.674;2024-03-23T23:57:41;99794.50;;;7.55
